African Highway — 3EOD8 — position and weather

sailwx.info

Track history (hours):
 
Tides and Currents Weather Stations Pressure Air Temp Water Temp Dewpoint Dewpoint Depression Visibility Wind Speed Wind Dir Waves Ship Positions

African Highway

Last reported at 2015-Sep-04 16:33 UTC. Time now 2015-Sep-04 16:40 UTC.
Position N 53°26' E 006°55'.

Length 154.5 m; beam 27.6 m.

Type: Cargo ship. MMSI: 353633000.

Date/timePositionNaut miles runAvg speedWind from/ knotsBaromVisibWave heightAir tempDewpointWater temp
2015-Sep-04 16:33N 53°26' E 006°55'1110.9
2015-Sep-04 15:33N 53°20' E 007°10'0 0.4
2015-Sep-04 14:33N 53°20' E 007°11'0 0.0
2015-Sep-04 13:33N 53°20' E 007°11'0 0.0
2015-Sep-04 12:33N 53°20' E 007°11'0 0.0
2015-Sep-04 11:33N 53°20' E 007°11'0 0.0
2015-Sep-04 10:33N 53°20' E 007°11'0 0.0
2015-Sep-04 09:33N 53°20' E 007°11'0 0.0
2015-Sep-04 08:33N 53°20' E 007°11'0 0.0
2015-Sep-04 07:33N 53°20' E 007°11'0 0.0
2015-Sep-04 06:30N 53°20' E 007°11'0 0.0
2015-Sep-04 05:33N 53°20' E 007°11'0 0.0
2015-Sep-04 04:33N 53°20' E 007°11'0 0.0
2015-Sep-04 03:33N 53°20' E 007°11'0 0.0
2015-Sep-04 02:33N 53°20' E 007°11'2 1.5
2015-Sep-04 01:33N 53°20' E 007°08'1010.3
2015-Sep-04 00:34N 53°26' E 006°55'1716.7
2015-Sep-03 23:34N 53°37' E 006°33'1111.1
2015-Sep-03 22:33N 53°38' E 006°14'1514.7
2015-Sep-03 21:33N 53°38' E 005°49'1716.8
2015-Sep-03 20:33N 53°32' E 005°23'1717.0
2015-Sep-03 19:33N 53°27' E 004°56'1616.3
2015-Sep-03 18:33N 53°18' E 004°33'14114.9
2015-Sep-03 09:04N 53°33' E 000°37'815.4
2015-Sep-03 08:33N 53°32' E 000°24'1110.9
2015-Sep-03 07:33N 53°34' E 000°06'6 6.1
2015-Sep-03 06:33N 53°35' W 000°04'0 0.0
2015-Sep-03 05:33N 53°35' W 000°04'0 0.0
2015-Sep-03 04:33N 53°35' W 000°04'0 0.0
2015-Sep-03 03:33N 53°35' W 000°04'0 0.0
2015-Sep-03 02:33N 53°35' W 000°04'0 0.0
2015-Sep-03 01:33N 53°35' W 000°04'0 0.0
2015-Sep-03 00:33N 53°35' W 000°04'0 0.0
2015-Sep-02 23:33N 53°35' W 000°04'0 0.0
2015-Sep-02 22:30N 53°35' W 000°04'0 0.0
2015-Sep-02 21:33N 53°35' W 000°04'0 0.0
2015-Sep-02 20:33N 53°35' W 000°04'5 4.8
2015-Sep-02 19:34N 53°35' E 000°04'10 9.8
2015-Sep-02 18:33N 53°33' E 000°20'6 6.3
2015-Sep-02 17:33N 53°32' E 000°31'4 3.7
2015-Sep-02 16:34N 53°33' E 000°37'13911.2
2015-Sep-02 04:08N 53°23' E 004°30'814.5
2015-Sep-02 03:33N 53°29' E 004°41'1414.4
2015-Sep-02 02:33N 53°34' E 005°03'1414.4
2015-Sep-02 01:33N 53°38' E 005°26'1414.0
2015-Sep-02 00:33N 53°43' E 005°49'1413.4
2015-Sep-01 23:32N 53°47' E 006°11'1110.9
2015-Sep-01 22:33N 53°39' E 006°22'1110.7
2015-Sep-01 21:33N 53°34' E 006°39'1211.8
2015-Sep-01 20:33N 53°27' E 006°54'10 9.6
2015-Sep-01 19:33N 53°20' E 007°05'3 3.4
2015-Sep-01 18:33N 53°20' E 007°11'0 0.0
2015-Sep-01 17:33N 53°20' E 007°11'0 0.0
2015-Sep-01 16:33N 53°20' E 007°11'0 0.0
2015-Sep-01 15:33N 53°20' E 007°11'0 0.0
2015-Sep-01 14:33N 53°20' E 007°11'0 0.0
2015-Sep-01 13:33N 53°20' E 007°11'0 0.0
2015-Sep-01 12:33N 53°20' E 007°11'0 0.0
2015-Sep-01 11:33N 53°20' E 007°11'0 0.0
2015-Sep-01 10:33N 53°20' E 007°11'0 0.0
2015-Sep-01 09:24N 53°20' E 007°11'0 0.0
2015-Sep-01 08:33N 53°20' E 007°11'0 0.0
2015-Sep-01 07:33N 53°20' E 007°11'0 0.0
2015-Sep-01 06:33N 53°20' E 007°11'0 0.0
2015-Sep-01 05:33N 53°20' E 007°11'0 0.0
2015-Sep-01 04:33N 53°20' E 007°11'0 0.0
2015-Sep-01 03:33N 53°20' E 007°11'0 0.0
2015-Sep-01 02:33N 53°20' E 007°11'0 0.0
2015-Sep-01 01:33N 53°20' E 007°11'7 6.6
2015-Sep-01 00:33N 53°20' E 006°60'1515.2
2015-Aug-31 23:33N 53°32' E 006°43'1514.8
2015-Aug-31 22:33N 53°37' E 006°20'8 8.2
2015-Aug-31 21:33N 53°38' E 006°06'9 9.1
2015-Aug-31 20:33N 53°37' E 005°51'1615.5
2015-Aug-31 19:33N 53°33' E 005°26'1717.0
2015-Aug-31 18:34N 53°27' E 004°59'1717.0
2015-Aug-31 17:34N 53°17' E 004°36'1413.0
2015-Aug-31 16:31N 53°21' E 004°14'12614.0
2015-Aug-31 07:33N 53°34' E 000°44'1414.2
2015-Aug-31 06:33N 53°32' E 000°21'8 7.6
2015-Aug-31 05:34N 53°33' E 000°08'8 7.4
2015-Aug-31 04:33N 53°35' W 000°04'0 0.0
2015-Aug-31 03:33N 53°35' W 000°04'0 0.0
2015-Aug-31 02:33N 53°35' W 000°04'0 0.0
2015-Aug-31 01:33N 53°35' W 000°04'0 0.0
2015-Aug-31 00:33N 53°35' W 000°04'0 0.0
2015-Aug-30 23:33N 53°35' W 000°04'0 0.0
2015-Aug-30 22:33N 53°35' W 000°04'0 0.0
2015-Aug-30 21:33N 53°35' W 000°04'0 0.0
2015-Aug-30 20:33N 53°35' W 000°04'0 0.0
2015-Aug-30 19:33N 53°35' W 000°04'0 0.0
2015-Aug-30 18:33N 53°35' W 000°04'0 0.3
2015-Aug-30 17:33N 53°35' W 000°03'10 9.6
2015-Aug-30 16:33N 53°33' E 000°12'1111.2
2015-Aug-30 15:33N 53°33' E 000°31'7 7.0
2015-Aug-30 14:33N 53°32' E 000°43'1 0.7
2015-Aug-30 13:34N 53°33' E 000°44'1 0.7
2015-Aug-30 12:33N 53°32' E 000°43'2 1.9
2015-Aug-30 11:34N 53°30' E 000°42'1 0.9
2015-Aug-30 10:33N 53°31' E 000°43'1 1.1
2015-Aug-30 09:33N 53°30' E 000°43'1 1.4
2015-Aug-30 08:33N 53°28' E 000°43'5 4.8
2015-Aug-30 07:33N 53°32' E 000°46'9014.3
2015-Aug-30 01:12N 53°57' E 003°14'1015.5
2015-Aug-30 00:33N 53°59' E 003°31'1515.4
2015-Aug-29 23:33N 54°00' E 003°57'1615.1
2015-Aug-29 22:31N 54°02' E 004°23'1414.7
2015-Aug-29 21:33N 54°04' E 004°47'1212.1
2015-Aug-29 20:33N 54°03' E 005°08'1312.6
2015-Aug-29 19:33N 53°58' E 005°27'1313.4
2015-Aug-29 18:33N 53°55' E 005°49'1514.4
2015-Aug-29 17:30N 53°49' E 006°13'1313.7
2015-Aug-29 16:33N 53°37' E 006°22'1413.9
2015-Aug-29 15:33N 53°32' E 006°44'1414.3
2015-Aug-29 14:33N 53°21' E 006°59'7 6.9
2015-Aug-29 13:33N 53°20' E 007°11'0 0.0
2015-Aug-29 12:33N 53°20' E 007°11'0 0.0
2015-Aug-29 11:33N 53°20' E 007°11'0 0.0
2015-Aug-29 10:33N 53°20' E 007°11'0 0.0
2015-Aug-29 09:32N 53°20' E 007°11'0 0.0
2015-Aug-29 08:33N 53°20' E 007°11'0 0.0
2015-Aug-29 07:33N 53°20' E 007°11'0 0.0
2015-Aug-29 06:33N 53°20' E 007°11'0 0.0
2015-Aug-29 05:33N 53°20' E 007°11'0 0.0
2015-Aug-29 04:33N 53°20' E 007°11'0 0.0
2015-Aug-29 03:33N 53°20' E 007°11'0 0.0
2015-Aug-29 02:30N 53°20' E 007°11'0 0.0
2015-Aug-29 01:33N 53°20' E 007°11'0 0.0
2015-Aug-29 00:33N 53°20' E 007°11'0 0.0
2015-Aug-28 23:33N 53°20' E 007°11'0 0.0
2015-Aug-28 22:33N 53°20' E 007°11'0 0.0
2015-Aug-28 21:33N 53°20' E 007°11'0 0.0
2015-Aug-28 20:33N 53°20' E 007°11'0 0.0
2015-Aug-28 19:33N 53°20' E 007°11'0 0.0
2015-Aug-28 18:32N 53°20' E 007°11'0 0.0
2015-Aug-28 17:29N 53°20' E 007°11'0 0.0
2015-Aug-28 16:33N 53°20' E 007°11'0 0.0
2015-Aug-28 15:33N 53°20' E 007°11'0 0.0
2015-Aug-28 14:33N 53°20' E 007°11'0 0.0
2015-Aug-28 13:33N 53°20' E 007°11'0 0.0
2015-Aug-28 12:33N 53°20' E 007°11'0 0.0
2015-Aug-28 11:33N 53°20' E 007°11'0 0.0
2015-Aug-28 10:33N 53°20' E 007°11'0 0.0
2015-Aug-28 09:33N 53°20' E 007°11'0 0.0
2015-Aug-28 08:33N 53°20' E 007°11'0 0.0
2015-Aug-28 07:33N 53°20' E 007°11'0 0.0
2015-Aug-28 06:33N 53°20' E 007°11'0 0.0
2015-Aug-28 05:32N 53°20' E 007°11'0 0.0
2015-Aug-28 04:33N 53°20' E 007°11'0 0.0
2015-Aug-28 03:30N 53°20' E 007°11'0 0.0
2015-Aug-28 02:30N 53°20' E 007°11'0 0.0
2015-Aug-28 01:33N 53°20' E 007°11'0 0.0
2015-Aug-28 00:33N 53°20' E 007°11'0 0.0
2015-Aug-27 23:33N 53°20' E 007°11'0 0.0
2015-Aug-27 22:33N 53°20' E 007°11'0 0.0
2015-Aug-27 21:33N 53°20' E 007°11'0 0.0
2015-Aug-27 20:33N 53°20' E 007°11'0 0.0
2015-Aug-27 19:33N 53°20' E 007°11'0 0.0
2015-Aug-27 18:32N 53°20' E 007°11'0 0.0
2015-Aug-27 17:33N 53°20' E 007°11'0 0.0
2015-Aug-27 16:33N 53°20' E 007°11'0 0.0
2015-Aug-27 15:33N 53°20' E 007°11'0 0.0
2015-Aug-27 14:32N 53°20' E 007°11'0 0.0
2015-Aug-27 13:33N 53°20' E 007°11'0 0.0
2015-Aug-27 12:32N 53°20' E 007°11'0 0.0
2015-Aug-27 11:33N 53°20' E 007°11'0 0.0
2015-Aug-27 10:32N 53°20' E 007°11'0 0.0
2015-Aug-27 09:33N 53°20' E 007°11'0 0.0
2015-Aug-27 08:33N 53°20' E 007°11'0 0.0
2015-Aug-27 07:32N 53°20' E 007°11'0 0.0
2015-Aug-27 06:33N 53°20' E 007°11'0 0.0
2015-Aug-27 05:30N 53°20' E 007°11'0 0.0
2015-Aug-27 04:33N 53°20' E 007°11'0 0.0
2015-Aug-27 03:32N 53°20' E 007°11'0 0.0
2015-Aug-27 02:33N 53°20' E 007°11'0 0.0
2015-Aug-27 01:33N 53°20' E 007°11'0 0.0
2015-Aug-27 00:33N 53°20' E 007°11'0 0.0
2015-Aug-26 23:33N 53°20' E 007°11'0 0.0
2015-Aug-26 22:33N 53°20' E 007°11'0 0.0
2015-Aug-26 21:32N 53°20' E 007°11'0 0.0
2015-Aug-26 20:33N 53°20' E 007°11'0 0.0
2015-Aug-26 19:33N 53°20' E 007°11'0 0.0
2015-Aug-26 18:33N 53°20' E 007°11'0 0.0
2015-Aug-26 17:33N 53°20' E 007°11'0 0.0
2015-Aug-26 16:33N 53°20' E 007°11'0 0.0
2015-Aug-26 15:32N 53°20' E 007°11'0 0.0
2015-Aug-26 14:32N 53°20' E 007°11'0 0.0
2015-Aug-26 13:30N 53°20' E 007°11'0 0.0
2015-Aug-26 12:33N 53°20' E 007°11'0 0.0
2015-Aug-26 11:33N 53°20' E 007°11'0 0.0
2015-Aug-26 10:32N 53°20' E 007°11'0 0.0
2015-Aug-26 09:33N 53°20' E 007°11'0 0.0
2015-Aug-26 08:33N 53°20' E 007°11'0 0.0
2015-Aug-26 07:33N 53°20' E 007°11'0 0.0
2015-Aug-26 06:33N 53°20' E 007°11'0 0.0
2015-Aug-26 05:33N 53°20' E 007°11'0 0.0
2015-Aug-26 04:33N 53°20' E 007°11'0 0.0
2015-Aug-26 03:32N 53°20' E 007°11'0 0.0
2015-Aug-26 02:32N 53°20' E 007°11'0 0.0
2015-Aug-26 01:30N 53°20' E 007°11'0 0.0
2015-Aug-26 00:32N 53°20' E 007°11'0 0.0
2015-Aug-25 23:33N 53°20' E 007°11'0 0.0
2015-Aug-25 22:33N 53°20' E 007°11'0 0.0
2015-Aug-25 21:33N 53°20' E 007°11'0 0.0
2015-Aug-25 20:32N 53°20' E 007°11'0 0.0
2015-Aug-25 19:33N 53°20' E 007°11'0 0.0
2015-Aug-25 18:33N 53°20' E 007°11'0 0.0
2015-Aug-25 17:33N 53°20' E 007°11'  
Track history (hours):
 
Tides and Currents Weather Stations Pressure Air Temp Water Temp Dewpoint Dewpoint Depression Visibility Wind Speed Wind Dir Waves Ship Positions

African Highway

Last reported at 2015-Sep-04 16:33 UTC. Time now 2015-Sep-04 16:40 UTC.
Position N 53°26' E 006°55'.

Length 154.5 m; beam 27.6 m.

Type: Cargo ship. MMSI: 353633000.

Date/timePositionNaut miles runAvg speedWind from/ knotsBaromVisibWave heightAir tempDewpointWater temp
2015-Sep-04 16:33N 53°26' E 006°55'1110.9
2015-Sep-04 15:33N 53°20' E 007°10'0 0.4
2015-Sep-04 14:33N 53°20' E 007°11'0 0.0
2015-Sep-04 13:33N 53°20' E 007°11'0 0.0
2015-Sep-04 12:33N 53°20' E 007°11'0 0.0
2015-Sep-04 11:33N 53°20' E 007°11'0 0.0
2015-Sep-04 10:33N 53°20' E 007°11'0 0.0
2015-Sep-04 09:33N 53°20' E 007°11'0 0.0
2015-Sep-04 08:33N 53°20' E 007°11'0 0.0
2015-Sep-04 07:33N 53°20' E 007°11'0 0.0
2015-Sep-04 06:30N 53°20' E 007°11'0 0.0
2015-Sep-04 05:33N 53°20' E 007°11'0 0.0
2015-Sep-04 04:33N 53°20' E 007°11'0 0.0
2015-Sep-04 03:33N 53°20' E 007°11'0 0.0
2015-Sep-04 02:33N 53°20' E 007°11'2 1.5
2015-Sep-04 01:33N 53°20' E 007°08'1010.3
2015-Sep-04 00:34N 53°26' E 006°55'1716.7
2015-Sep-03 23:34N 53°37' E 006°33'1111.1
2015-Sep-03 22:33N 53°38' E 006°14'1514.7
2015-Sep-03 21:33N 53°38' E 005°49'1716.8
2015-Sep-03 20:33N 53°32' E 005°23'1717.0
2015-Sep-03 19:33N 53°27' E 004°56'1616.3
2015-Sep-03 18:33N 53°18' E 004°33'14114.9
2015-Sep-03 09:04N 53°33' E 000°37'815.4
2015-Sep-03 08:33N 53°32' E 000°24'1110.9
2015-Sep-03 07:33N 53°34' E 000°06'6 6.1
2015-Sep-03 06:33N 53°35' W 000°04'0 0.0
2015-Sep-03 05:33N 53°35' W 000°04'0 0.0
2015-Sep-03 04:33N 53°35' W 000°04'0 0.0
2015-Sep-03 03:33N 53°35' W 000°04'0 0.0
2015-Sep-03 02:33N 53°35' W 000°04'0 0.0
2015-Sep-03 01:33N 53°35' W 000°04'0 0.0
2015-Sep-03 00:33N 53°35' W 000°04'0 0.0
2015-Sep-02 23:33N 53°35' W 000°04'0 0.0
2015-Sep-02 22:30N 53°35' W 000°04'0 0.0
2015-Sep-02 21:33N 53°35' W 000°04'0 0.0
2015-Sep-02 20:33N 53°35' W 000°04'5 4.8
2015-Sep-02 19:34N 53°35' E 000°04'10 9.8
2015-Sep-02 18:33N 53°33' E 000°20'6 6.3
2015-Sep-02 17:33N 53°32' E 000°31'4 3.7
2015-Sep-02 16:34N 53°33' E 000°37'13911.2
2015-Sep-02 04:08N 53°23' E 004°30'814.5
2015-Sep-02 03:33N 53°29' E 004°41'1414.4
2015-Sep-02 02:33N 53°34' E 005°03'1414.4
2015-Sep-02 01:33N 53°38' E 005°26'1414.0
2015-Sep-02 00:33N 53°43' E 005°49'1413.4
2015-Sep-01 23:32N 53°47' E 006°11'1110.9
2015-Sep-01 22:33N 53°39' E 006°22'1110.7
2015-Sep-01 21:33N 53°34' E 006°39'1211.8
2015-Sep-01 20:33N 53°27' E 006°54'10 9.6
2015-Sep-01 19:33N 53°20' E 007°05'3 3.4
2015-Sep-01 18:33N 53°20' E 007°11'0 0.0
2015-Sep-01 17:33N 53°20' E 007°11'0 0.0
2015-Sep-01 16:33N 53°20' E 007°11'0 0.0
2015-Sep-01 15:33N 53°20' E 007°11'0 0.0
2015-Sep-01 14:33N 53°20' E 007°11'0 0.0
2015-Sep-01 13:33N 53°20' E 007°11'0 0.0
2015-Sep-01 12:33N 53°20' E 007°11'0 0.0
2015-Sep-01 11:33N 53°20' E 007°11'0 0.0
2015-Sep-01 10:33N 53°20' E 007°11'0 0.0
2015-Sep-01 09:24N 53°20' E 007°11'0 0.0
2015-Sep-01 08:33N 53°20' E 007°11'0 0.0
2015-Sep-01 07:33N 53°20' E 007°11'0 0.0
2015-Sep-01 06:33N 53°20' E 007°11'0 0.0
2015-Sep-01 05:33N 53°20' E 007°11'0 0.0
2015-Sep-01 04:33N 53°20' E 007°11'0 0.0
2015-Sep-01 03:33N 53°20' E 007°11'0 0.0
2015-Sep-01 02:33N 53°20' E 007°11'0 0.0
2015-Sep-01 01:33N 53°20' E 007°11'7 6.6
2015-Sep-01 00:33N 53°20' E 006°60'1515.2
2015-Aug-31 23:33N 53°32' E 006°43'1514.8
2015-Aug-31 22:33N 53°37' E 006°20'8 8.2
2015-Aug-31 21:33N 53°38' E 006°06'9 9.1
2015-Aug-31 20:33N 53°37' E 005°51'1615.5
2015-Aug-31 19:33N 53°33' E 005°26'1717.0
2015-Aug-31 18:34N 53°27' E 004°59'1717.0
2015-Aug-31 17:34N 53°17' E 004°36'1413.0
2015-Aug-31 16:31N 53°21' E 004°14'12614.0
2015-Aug-31 07:33N 53°34' E 000°44'1414.2
2015-Aug-31 06:33N 53°32' E 000°21'8 7.6
2015-Aug-31 05:34N 53°33' E 000°08'8 7.4
2015-Aug-31 04:33N 53°35' W 000°04'0 0.0
2015-Aug-31 03:33N 53°35' W 000°04'0 0.0
2015-Aug-31 02:33N 53°35' W 000°04'0 0.0
2015-Aug-31 01:33N 53°35' W 000°04'0 0.0
2015-Aug-31 00:33N 53°35' W 000°04'0 0.0
2015-Aug-30 23:33N 53°35' W 000°04'0 0.0
2015-Aug-30 22:33N 53°35' W 000°04'0 0.0
2015-Aug-30 21:33N 53°35' W 000°04'0 0.0
2015-Aug-30 20:33N 53°35' W 000°04'0 0.0
2015-Aug-30 19:33N 53°35' W 000°04'0 0.0
2015-Aug-30 18:33N 53°35' W 000°04'0 0.3
2015-Aug-30 17:33N 53°35' W 000°03'10 9.6
2015-Aug-30 16:33N 53°33' E 000°12'1111.2
2015-Aug-30 15:33N 53°33' E 000°31'7 7.0
2015-Aug-30 14:33N 53°32' E 000°43'1 0.7
2015-Aug-30 13:34N 53°33' E 000°44'1 0.7
2015-Aug-30 12:33N 53°32' E 000°43'2 1.9
2015-Aug-30 11:34N 53°30' E 000°42'1 0.9
2015-Aug-30 10:33N 53°31' E 000°43'1 1.1
2015-Aug-30 09:33N 53°30' E 000°43'1 1.4
2015-Aug-30 08:33N 53°28' E 000°43'5 4.8
2015-Aug-30 07:33N 53°32' E 000°46'9014.3
2015-Aug-30 01:12N 53°57' E 003°14'1015.5
2015-Aug-30 00:33N 53°59' E 003°31'1515.4
2015-Aug-29 23:33N 54°00' E 003°57'1615.1
2015-Aug-29 22:31N 54°02' E 004°23'1414.7
2015-Aug-29 21:33N 54°04' E 004°47'1212.1
2015-Aug-29 20:33N 54°03' E 005°08'1312.6
2015-Aug-29 19:33N 53°58' E 005°27'1313.4
2015-Aug-29 18:33N 53°55' E 005°49'1514.4
2015-Aug-29 17:30N 53°49' E 006°13'1313.7
2015-Aug-29 16:33N 53°37' E 006°22'1413.9
2015-Aug-29 15:33N 53°32' E 006°44'1414.3
2015-Aug-29 14:33N 53°21' E 006°59'7 6.9
2015-Aug-29 13:33N 53°20' E 007°11'0 0.0
2015-Aug-29 12:33N 53°20' E 007°11'0 0.0
2015-Aug-29 11:33N 53°20' E 007°11'0 0.0
2015-Aug-29 10:33N 53°20' E 007°11'0 0.0
2015-Aug-29 09:32N 53°20' E 007°11'0 0.0
2015-Aug-29 08:33N 53°20' E 007°11'0 0.0
2015-Aug-29 07:33N 53°20' E 007°11'0 0.0
2015-Aug-29 06:33N 53°20' E 007°11'0 0.0
2015-Aug-29 05:33N 53°20' E 007°11'0 0.0
2015-Aug-29 04:33N 53°20' E 007°11'0 0.0
2015-Aug-29 03:33N 53°20' E 007°11'0 0.0
2015-Aug-29 02:30N 53°20' E 007°11'0 0.0
2015-Aug-29 01:33N 53°20' E 007°11'0 0.0
2015-Aug-29 00:33N 53°20' E 007°11'0 0.0
2015-Aug-28 23:33N 53°20' E 007°11'0 0.0
2015-Aug-28 22:33N 53°20' E 007°11'0 0.0
2015-Aug-28 21:33N 53°20' E 007°11'0 0.0
2015-Aug-28 20:33N 53°20' E 007°11'0 0.0
2015-Aug-28 19:33N 53°20' E 007°11'0 0.0
2015-Aug-28 18:32N 53°20' E 007°11'0 0.0
2015-Aug-28 17:29N 53°20' E 007°11'0 0.0
2015-Aug-28 16:33N 53°20' E 007°11'0 0.0
2015-Aug-28 15:33N 53°20' E 007°11'0 0.0
2015-Aug-28 14:33N 53°20' E 007°11'0 0.0
2015-Aug-28 13:33N 53°20' E 007°11'0 0.0
2015-Aug-28 12:33N 53°20' E 007°11'0 0.0
2015-Aug-28 11:33N 53°20' E 007°11'0 0.0
2015-Aug-28 10:33N 53°20' E 007°11'0 0.0
2015-Aug-28 09:33N 53°20' E 007°11'0 0.0
2015-Aug-28 08:33N 53°20' E 007°11'0 0.0
2015-Aug-28 07:33N 53°20' E 007°11'0 0.0
2015-Aug-28 06:33N 53°20' E 007°11'0 0.0
2015-Aug-28 05:32N 53°20' E 007°11'0 0.0
2015-Aug-28 04:33N 53°20' E 007°11'0 0.0
2015-Aug-28 03:30N 53°20' E 007°11'0 0.0
2015-Aug-28 02:30N 53°20' E 007°11'0 0.0
2015-Aug-28 01:33N 53°20' E 007°11'0 0.0
2015-Aug-28 00:33N 53°20' E 007°11'0 0.0
2015-Aug-27 23:33N 53°20' E 007°11'0 0.0
2015-Aug-27 22:33N 53°20' E 007°11'0 0.0
2015-Aug-27 21:33N 53°20' E 007°11'0 0.0
2015-Aug-27 20:33N 53°20' E 007°11'0 0.0
2015-Aug-27 19:33N 53°20' E 007°11'0 0.0
2015-Aug-27 18:32N 53°20' E 007°11'0 0.0
2015-Aug-27 17:33N 53°20' E 007°11'0 0.0
2015-Aug-27 16:33N 53°20' E 007°11'0 0.0
2015-Aug-27 15:33N 53°20' E 007°11'0 0.0
2015-Aug-27 14:32N 53°20' E 007°11'0 0.0
2015-Aug-27 13:33N 53°20' E 007°11'0 0.0
2015-Aug-27 12:32N 53°20' E 007°11'0 0.0
2015-Aug-27 11:33N 53°20' E 007°11'0 0.0
2015-Aug-27 10:32N 53°20' E 007°11'0 0.0
2015-Aug-27 09:33N 53°20' E 007°11'0 0.0
2015-Aug-27 08:33N 53°20' E 007°11'0 0.0
2015-Aug-27 07:32N 53°20' E 007°11'0 0.0
2015-Aug-27 06:33N 53°20' E 007°11'0 0.0
2015-Aug-27 05:30N 53°20' E 007°11'0 0.0
2015-Aug-27 04:33N 53°20' E 007°11'0 0.0
2015-Aug-27 03:32N 53°20' E 007°11'0 0.0
2015-Aug-27 02:33N 53°20' E 007°11'0 0.0
2015-Aug-27 01:33N 53°20' E 007°11'0 0.0
2015-Aug-27 00:33N 53°20' E 007°11'0 0.0
2015-Aug-26 23:33N 53°20' E 007°11'0 0.0
2015-Aug-26 22:33N 53°20' E 007°11'0 0.0
2015-Aug-26 21:32N 53°20' E 007°11'0 0.0
2015-Aug-26 20:33N 53°20' E 007°11'0 0.0
2015-Aug-26 19:33N 53°20' E 007°11'0 0.0
2015-Aug-26 18:33N 53°20' E 007°11'0 0.0
2015-Aug-26 17:33N 53°20' E 007°11'0 0.0
2015-Aug-26 16:33N 53°20' E 007°11'0 0.0
2015-Aug-26 15:32N 53°20' E 007°11'0 0.0
2015-Aug-26 14:32N 53°20' E 007°11'0 0.0
2015-Aug-26 13:30N 53°20' E 007°11'0 0.0
2015-Aug-26 12:33N 53°20' E 007°11'0 0.0
2015-Aug-26 11:33N 53°20' E 007°11'0 0.0
2015-Aug-26 10:32N 53°20' E 007°11'0 0.0
2015-Aug-26 09:33N 53°20' E 007°11'0 0.0
2015-Aug-26 08:33N 53°20' E 007°11'0 0.0
2015-Aug-26 07:33N 53°20' E 007°11'0 0.0
2015-Aug-26 06:33N 53°20' E 007°11'0 0.0
2015-Aug-26 05:33N 53°20' E 007°11'0 0.0
2015-Aug-26 04:33N 53°20' E 007°11'0 0.0
2015-Aug-26 03:32N 53°20' E 007°11'0 0.0
2015-Aug-26 02:32N 53°20' E 007°11'0 0.0
2015-Aug-26 01:30N 53°20' E 007°11'0 0.0
2015-Aug-26 00:32N 53°20' E 007°11'0 0.0
2015-Aug-25 23:33N 53°20' E 007°11'0 0.0
2015-Aug-25 22:33N 53°20' E 007°11'0 0.0
2015-Aug-25 21:33N 53°20' E 007°11'0 0.0
2015-Aug-25 20:32N 53°20' E 007°11'0 0.0
2015-Aug-25 19:33N 53°20' E 007°11'0 0.0
2015-Aug-25 18:33N 53°20' E 007°11'0 0.0
2015-Aug-25 17:33N 53°20' E 007°11'  

Dump ship's entire track history